Time;durP1;ratioP1;P1;durP2;ratioP2;P2;SDS_P1;SDS_P2;PMS_P1;PMS_P2;Temp;Humidity;BMP_temperature;BMP_pressure;BME280_temperature;BME280_humidity;BME280_pressure;Samples;Min_cycle;Max_cycle;Signal;HPM_P1;HPM_P2
2022/11/25 00:01:04;;;;;;;21.60;3.70;;;;;;;16.73;59.03;100875.09;5049821;28;20101;-68
2022/11/25 00:03:30;;;;;;;22.38;4.28;;;;;;;16.72;57.04;100881.28;5061995;28;20107;-68
2022/11/25 00:05:55;;;;;;;25.00;4.10;;;;;;;16.30;59.95;100883.59;5035658;28;20056;-68
2022/11/25 00:08:20;;;;;;;22.47;4.80;;;;;;;16.48;59.02;100885.59;5048853;28;20514;-68
2022/11/25 00:10:45;;;;;;;22.43;4.03;;;;;;;15.71;62.94;100883.63;5050569;28;20035;-68
2022/11/25 00:13:11;;;;;;;18.23;3.63;;;;;;;15.53;65.26;100876.28;5047651;28;20174;-68
2022/11/25 00:15:36;;;;;;;24.87;4.33;;;;;;;15.39;64.60;100869.66;5049674;28;20033;-67
2022/11/25 00:18:02;;;;;;;20.97;4.27;;;;;;;15.37;68.03;100871.47;5050033;28;20453;-68
2022/11/25 00:20:27;;;;;;;17.00;3.20;;;;;;;15.54;67.08;100875.38;5048947;28;20423;-68
2022/11/25 00:22:52;;;;;;;14.90;3.83;;;;;;;15.30;68.28;100867.28;5049701;28;20025;-68
2022/11/25 00:25:18;;;;;;;17.13;4.80;;;;;;;15.47;65.21;100876.47;5048021;28;20111;-68
2022/11/25 00:27:43;;;;;;;20.63;4.27;;;;;;;16.69;59.67;100876.09;5045458;28;20425;-68
2022/11/25 00:30:09;;;;;;;22.23;3.97;;;;;;;16.44;60.67;100881.34;5047228;28;20035;-68
2022/11/25 00:32:34;;;;;;;23.37;4.27;;;;;;;16.47;61.70;100886.50;5081687;28;20044;-68
2022/11/25 00:35:00;;;;;;;19.60;4.33;;;;;;;15.69;63.28;100882.81;5050812;28;20123;-68
2022/11/25 00:37:25;;;;;;;21.93;3.70;;;;;;;16.79;59.92;100882.78;5048495;28;20029;-68
2022/11/25 00:39:50;;;;;;;29.20;4.73;;;;;;;17.15;57.24;100883.31;5047886;28;20021;-68
2022/11/25 00:45:00;;;;;;;27.83;5.47;;;;;;;16.79;57.82;100888.03;5050658;28;20071;-68
2022/11/25 00:47:25;;;;;;;27.63;4.70;;;;;;;16.96;56.86;100889.25;5080053;28;20045;-68
2022/11/25 00:49:53;;;;;;;24.60;5.00;;;;;;;17.27;56.50;100890.81;5048274;28;20032;-68
2022/11/25 00:52:22;;;;;;;25.33;4.53;;;;;;;16.62;58.47;100885.13;5048626;28;20471;-68
2022/11/25 00:54:48;;;;;;;20.77;3.93;;;;;;;16.47;60.21;100890.94;5048504;28;20029;-68
2022/11/25 00:57:14;;;;;;;18.80;4.03;;;;;;;16.08;62.28;100887.78;5047137;28;20025;-68
2022/11/25 00:59:40;;;;;;;17.30;4.47;;;;;;;16.05;62.63;100890.50;5053747;28;20017;-68
2022/11/25 01:02:06;;;;;;;19.23;4.67;;;;;;;16.06;63.01;100897.53;5052538;28;20101;-68
2022/11/25 01:04:32;;;;;;;17.20;4.70;;;;;;;16.72;59.88;100899.75;5054618;28;20059;-69
2022/11/25 01:06:58;;;;;;;17.17;4.93;;;;;;;16.84;59.13;100898.44;5050897;28;20060;-69
2022/11/25 01:09:24;;;;;;;19.37;5.13;;;;;;;16.36;61.17;100915.03;5049463;28;20025;-68
2022/11/25 01:11:51;;;;;;;21.10;4.60;;;;;;;16.62;60.75;100911.50;5086739;28;20030;-69
2022/11/25 01:14:17;;;;;;;19.23;6.20;;;;;;;16.88;58.21;100907.13;5054806;28;20484;-68
2022/11/25 01:16:43;;;;;;;23.67;5.80;;;;;;;16.31;60.96;100909.91;5051767;28;20036;-69
2022/11/25 01:19:10;;;;;;;23.60;6.37;;;;;;;16.68;60.56;100913.06;5086497;28;20013;-69
2022/11/25 01:21:35;;;;;;;20.00;5.93;;;;;;;17.22;58.28;100911.22;5051162;28;20021;-69
2022/11/25 01:24:03;;;;;;;30.57;5.93;;;;;;;16.90;59.49;100915.91;5052102;28;20040;-68
2022/11/25 01:26:29;;;;;;;29.93;6.27;;;;;;;17.25;57.85;100916.41;5052273;28;20033;-69
2022/11/25 01:28:58;;;;;;;15.27;5.40;;;;;;;17.28;57.57;100913.63;5050321;28;20033;-68
2022/11/25 01:31:25;;;;;;;29.43;6.10;;;;;;;16.94;58.77;100915.72;5052820;28;20474;-69
2022/11/25 01:33:56;;;;;;;23.83;5.67;;;;;;;17.50;56.32;100915.47;5052684;28;20051;-68
2022/11/25 01:36:21;;;;;;;29.80;5.80;;;;;;;16.33;62.31;100915.97;5051181;28;20041;-68
2022/11/25 01:38:51;;;;;;;27.90;5.50;;;;;;;17.51;57.60;100907.50;5051617;28;20394;-68
2022/11/25 01:41:17;;;;;;;13.40;5.33;;;;;;;16.71;59.74;100915.63;5085422;28;20401;-68
2022/11/25 01:43:42;;;;;;;22.40;5.67;;;;;;;17.66;57.19;100908.69;5053029;28;20025;-68
2022/11/25 01:46:07;;;;;;;24.37;5.07;;;;;;;17.16;59.96;100911.44;5051237;28;20043;-68
2022/11/25 01:48:59;;;;;;;26.67;5.83;;;;;;;16.93;60.58;100902.56;5068966;28;20079;-68
2022/11/25 01:51:32;;;;;;;20.40;4.73;;;;;;;16.98;59.24;100892.72;5051551;28;20025;-68
2022/11/25 01:54:02;;;;;;;30.37;5.17;;;;;;;17.17;58.69;100894.69;5051617;28;20478;-72
2022/11/25 01:56:32;;;;;;;27.10;4.60;;;;;;;17.46;57.47;100910.31;5051551;28;20086;-69
2022/11/25 01:58:58;;;;;;;17.97;3.97;;;;;;;16.91;59.39;100912.31;5051035;28;20045;-69
2022/11/25 02:01:23;;;;;;;32.67;4.57;;;;;;;16.37;61.81;100906.22;5051221;28;20049;-68
2022/11/25 02:03:53;;;;;;;23.40;4.23;;;;;;;17.66;56.96;100906.06;5052440;28;20079;-69
2022/11/25 02:06:29;;;;;;;22.80;4.53;;;;;;;17.43;58.28;100889.31;5051849;28;20028;-68
2022/11/25 02:09:00;;;;;;;19.07;4.63;;;;;;;17.74;56.38;100898.69;5052803;28;20104;-68
2022/11/25 02:11:29;;;;;;;22.50;4.17;;;;;;;17.54;56.10;100899.44;5083987;28;20031;-68
2022/11/25 02:13:56;;;;;;;18.60;3.60;;;;;;;16.45;62.64;100905.03;5051844;28;20029;-68
2022/11/25 02:16:21;;;;;;;19.23;4.10;;;;;;;16.00;63.84;100907.41;5050252;28;20060;-68
2022/11/25 02:18:48;;;;;;;25.60;4.07;;;;;;;16.62;62.38;100906.22;5052461;28;20056;-68
2022/11/25 02:21:20;;;;;;;20.17;3.67;;;;;;;17.72;57.81;100900.53;5049812;28;20029;-68
2022/11/25 02:24:00;;;;;;;15.97;2.83;;;;;;;17.33;57.66;100911.69;5051717;28;20028;-68
2022/11/25 02:26:25;;;;;;;13.03;3.00;;;;;;;16.85;59.22;100901.97;5050006;28;20656;-68
2022/11/25 02:28:51;;;;;;;12.70;2.70;;;;;;;17.17;59.18;100907.88;5052333;28;20111;-68
2022/11/25 02:31:21;;;;;;;14.90;3.37;;;;;;;17.29;56.86;100910.06;5050767;28;20029;-68
2022/11/25 02:33:47;;;;;;;18.13;3.20;;;;;;;17.23;58.95;100912.97;5049530;28;20029;-68
2022/11/25 02:36:17;;;;;;;12.10;3.57;;;;;;;17.25;57.61;100911.09;5050570;28;20504;-68
2022/11/25 02:38:53;;;;;;;23.10;4.20;;;;;;;17.28;57.79;100911.88;5051637;28;20112;-68
2022/11/25 02:41:28;;;;;;;15.83;3.23;;;;;;;16.07;61.42;100930.88;5050401;28;20040;-68
2022/11/25 02:43:54;;;;;;;14.30;2.33;;;;;;;17.54;57.14;100922.38;5050681;28;20033;-68
2022/11/25 02:46:22;;;;;;;10.77;2.57;;;;;;;16.49;61.16;100920.78;5051590;28;20024;-67
2022/11/25 02:48:48;;;;;;;11.33;2.73;;;;;;;16.60;58.87;100923.91;5052484;28;20220;-68
2022/11/25 02:51:16;;;;;;;10.93;2.03;;;;;;;16.67;57.80;100917.50;5051823;28;20115;-68
2022/11/25 02:53:41;;;;;;;14.20;2.50;;;;;;;17.36;56.33;100922.13;5050189;28;20128;-68
2022/11/25 02:56:08;;;;;;;14.63;2.40;;;;;;;16.81;56.94;100918.81;5051303;28;20108;-68
2022/11/25 02:58:33;;;;;;;10.17;2.30;;;;;;;16.48;59.25;100916.41;5050203;28;20102;-68
2022/11/25 03:00:58;;;;;;;9.10;2.20;;;;;;;16.70;58.01;100916.53;5048234;28;20032;-68
2022/11/25 03:03:24;;;;;;;11.37;2.50;;;;;;;17.28;56.90;100917.16;5050745;28;20032;-68
2022/11/25 03:05:49;;;;;;;17.43;2.87;;;;;;;17.47;55.01;100924.38;5050477;28;20024;-68
2022/11/25 03:08:15;;;;;;;11.43;2.13;;;;;;;17.03;56.21;100933.00;5050259;28;20047;-68
2022/11/25 03:10:40;;;;;;;8.23;1.97;;;;;;;17.57;54.73;100922.25;5049949;28;20043;-68
2022/11/25 03:13:07;;;;;;;15.23;2.87;;;;;;;18.29;51.58;100915.97;5051512;28;20036;-68
2022/11/25 03:15:33;;;;;;;12.20;2.30;;;;;;;17.51;53.52;100927.78;5049366;28;20136;-68
2022/11/25 03:17:59;;;;;;;12.57;2.30;;;;;;;17.53;54.10;100936.50;5049279;28;20032;-68
2022/11/25 03:20:24;;;;;;;7.07;2.10;;;;;;;17.55;53.80;100951.38;5049735;28;20040;-68
2022/11/25 03:22:50;;;;;;;13.90;2.70;;;;;;;17.38;53.85;100953.78;5049362;28;20039;-68
2022/11/25 03:25:16;;;;;;;10.30;2.17;;;;;;;17.48;54.05;100949.03;5048963;28;20474;-68
2022/11/25 03:27:42;;;;;;;11.40;2.40;;;;;;;17.49;53.52;100946.34;5051854;28;20025;-68
2022/11/25 03:30:11;;;;;;;7.70;2.70;;;;;;;16.94;54.58;100952.69;5049667;28;20026;-68
2022/11/25 03:32:37;;;;;;;11.13;2.90;;;;;;;16.36;57.45;100958.09;5042130;28;20035;-67
2022/11/25 03:35:04;;;;;;;9.27;2.30;;;;;;;17.27;55.65;100962.13;5048309;28;20033;-67
2022/11/25 03:37:29;;;;;;;9.07;2.90;;;;;;;16.93;54.87;100968.59;5050036;28;20115;-68
2022/11/25 03:39:54;;;;;;;8.80;3.00;;;;;;;16.61;56.54;100967.88;5048293;28;20113;-67
2022/11/25 03:42:20;;;;;;;8.73;2.50;;;;;;;16.36;59.10;100984.50;5048606;28;20017;-68
2022/11/25 03:44:45;;;;;;;13.57;2.40;;;;;;;16.75;57.73;100981.44;5049062;28;20174;-68
2022/11/25 03:47:11;;;;;;;12.07;2.87;;;;;;;16.78;56.32;100981.34;5051279;28;20596;-68
2022/11/25 03:49:36;;;;;;;5.60;2.10;;;;;;;16.72;55.55;100975.41;5049306;28;20115;-68
2022/11/25 03:52:01;;;;;;;7.83;2.20;;;;;;;16.61;56.26;100973.16;5046636;28;20040;-68
2022/11/25 03:54:27;;;;;;;6.97;2.00;;;;;;;16.13;57.89;100987.84;5048324;28;20425;-68
2022/11/25 03:56:52;;;;;;;8.53;1.57;;;;;;;15.62;59.57;100997.22;5049259;28;20052;-68
2022/11/25 03:59:18;;;;;;;8.67;1.90;;;;;;;15.35;61.10;100988.31;5050129;28;20025;-68
2022/11/25 04:01:43;;;;;;;8.97;1.53;;;;;;;15.83;58.33;100997.53;5047879;28;20041;-68
2022/11/25 04:04:09;;;;;;;5.37;1.70;;;;;;;16.10;56.99;100988.78;5048303;28;20091;-67
2022/11/25 04:06:34;;;;;;;7.40;1.63;;;;;;;16.53;56.16;100983.09;5048849;28;20021;-68
2022/11/25 04:09:00;;;;;;;3.70;1.53;;;;;;;16.39;55.37;100989.66;5049930;28;20017;-68
2022/11/25 04:12:45;;;;;;;8.63;2.20;;;;;;;16.64;54.22;100983.59;5048401;28;20090;-67
2022/11/25 04:14:10;;;;;;;4.00;1.80;;;;;;;15.97;57.25;100992.69;5047949;28;21358;-68
2022/11/25 04:16:36;;;;;;;9.03;2.53;;;;;;;15.99;57.30;100996.16;5049934;28;20119;-68
2022/11/25 04:19:01;;;;;;;8.23;2.00;;;;;;;15.55;58.42;100991.25;5047921;28;20483;-68
2022/11/25 04:21:26;;;;;;;11.73;2.20;;;;;;;15.75;57.17;100998.56;5048813;28;20052;-67
2022/11/25 04:23:52;;;;;;;9.80;3.67;;;;;;;15.38;60.38;100998.75;5051003;28;20059;-68
2022/11/25 04:26:17;;;;;;;9.33;2.43;;;;;;;15.38;59.47;101004.88;5078694;28;20033;-67
2022/11/25 04:28:43;;;;;;;10.57;2.80;;;;;;;15.89;56.96;101002.59;5065975;28;20031;-68
2022/11/25 04:31:08;;;;;;;8.93;3.13;;;;;;;15.75;56.89;101003.84;5061972;28;20517;-68
2022/11/25 04:33:34;;;;;;;9.50;3.47;;;;;;;15.70;58.22;101005.75;5048093;28;20029;-68
2022/11/25 04:35:59;;;;;;;9.50;3.13;;;;;;;15.58;58.41;101017.50;5047329;28;20016;-68
2022/11/25 04:38:25;;;;;;;12.13;2.70;;;;;;;15.23;59.58;101015.81;5050658;28;20052;-67
2022/11/25 04:40:50;;;;;;;6.47;2.50;;;;;;;16.01;57.96;101028.59;5048359;28;20032;-68
2022/11/25 04:43:15;;;;;;;8.43;3.00;;;;;;;15.39;58.60;101032.94;5049205;28;20132;-68
2022/11/25 04:45:41;;;;;;;13.60;4.43;;;;;;;15.17;60.63;101037.91;5046476;28;20029;-68
2022/11/25 04:48:06;;;;;;;7.57;2.67;;;;;;;15.69;58.12;101045.31;5065460;28;20064;-68
2022/11/25 04:50:32;;;;;;;10.73;3.20;;;;;;;15.57;58.77;101041.25;5046478;28;20025;-68
2022/11/25 04:52:57;;;;;;;7.93;2.90;;;;;;;15.94;57.97;101045.53;5047272;28;20021;-68
2022/11/25 04:55:23;;;;;;;6.23;3.00;;;;;;;15.55;58.62;101053.59;5049414;28;20032;-68
2022/11/25 04:57:48;;;;;;;10.07;3.33;;;;;;;15.68;58.32;101060.25;5047137;28;20167;-67
2022/11/25 05:00:14;;;;;;;10.50;3.27;;;;;;;16.19;56.49;101055.34;5047324;28;20505;-68
2022/11/25 05:02:40;;;;;;;7.53;3.03;;;;;;;16.30;55.48;101055.88;5044903;28;20048;-68
2022/11/25 05:05:06;;;;;;;10.33;3.13;;;;;;;15.82;59.06;101056.41;5049266;28;20029;-68
2022/11/25 05:07:31;;;;;;;11.60;3.30;;;;;;;15.35;60.97;101062.91;5047522;28;20067;-68
2022/11/25 05:09:57;;;;;;;9.93;3.20;;;;;;;15.58;57.81;101061.44;5081763;28;20120;-68
2022/11/25 05:12:25;;;;;;;13.17;3.80;;;;;;;15.54;60.10;101057.16;5048916;28;20071;-67
2022/11/25 05:14:51;;;;;;;10.03;2.90;;;;;;;15.53;60.31;101063.31;5048403;28;20053;-68
2022/11/25 05:17:20;;;;;;;8.23;2.77;;;;;;;15.22;60.01;101058.84;5046460;28;20164;-68
2022/11/25 05:19:46;;;;;;;6.97;2.70;;;;;;;14.97;61.69;101059.47;5049613;28;20040;-68
2022/11/25 05:22:17;;;;;;;11.50;2.87;;;;;;;15.81;56.93;101065.22;5048728;28;20486;-68
2022/11/25 05:24:42;;;;;;;10.10;2.73;;;;;;;15.49;59.66;101069.59;5049073;28;20028;-68
2022/11/25 05:27:08;;;;;;;10.03;2.67;;;;;;;15.53;58.77;101065.97;5047452;28;20021;-68
2022/11/25 05:29:34;;;;;;;12.37;3.13;;;;;;;15.31;60.06;101071.78;5050054;28;20485;-68
2022/11/25 05:31:59;;;;;;;6.90;3.00;;;;;;;15.70;57.83;101079.53;5046775;28;20104;-68
2022/11/25 05:34:25;;;;;;;8.80;2.53;;;;;;;15.54;57.97;101088.78;5048223;28;20052;-67
2022/11/25 05:36:50;;;;;;;12.33;2.60;;;;;;;15.50;58.14;101087.13;5046670;28;20029;-68
2022/11/25 05:39:16;;;;;;;9.43;2.70;;;;;;;15.34;59.98;101092.75;5047661;28;20060;-68
2022/11/25 05:41:42;;;;;;;6.77;2.50;;;;;;;15.55;58.29;101101.91;5047652;28;20091;-67
2022/11/25 05:44:07;;;;;;;9.03;2.90;;;;;;;15.37;57.61;101094.47;5048803;28;20013;-67
2022/11/25 05:46:32;;;;;;;8.43;2.60;;;;;;;14.83;61.43;101101.06;5050631;28;20021;-68
2022/11/25 05:48:58;;;;;;;10.97;2.87;;;;;;;15.94;55.78;101098.25;5050879;28;20031;-68
2022/11/25 05:51:25;;;;;;;12.10;3.83;;;;;;;15.70;56.27;101099.75;5051475;28;20059;-68
2022/11/25 05:53:50;;;;;;;10.37;2.47;;;;;;;15.17;58.62;101106.38;5049595;28;20479;-68
2022/11/25 05:56:16;;;;;;;11.77;3.27;;;;;;;15.27;58.51;101101.75;5037141;28;20029;-68
2022/11/25 05:58:42;;;;;;;13.07;3.10;;;;;;;15.48;58.38;101102.94;5052190;28;20036;-68
2022/11/25 06:01:10;;;;;;;13.20;2.83;;;;;;;15.96;55.54;101117.50;5050407;28;20043;-68
2022/11/25 06:03:36;;;;;;;16.37;2.70;;;;;;;16.22;55.36;101108.00;5052415;28;20025;-68
2022/11/25 06:06:01;;;;;;;9.93;2.57;;;;;;;15.32;56.35;101115.66;5052617;28;20032;-68
2022/11/25 06:08:27;;;;;;;7.33;2.17;;;;;;;16.04;55.91;101112.88;5051836;28;20116;-68
2022/11/25 06:10:53;;;;;;;6.43;2.60;;;;;;;16.11;54.51;101119.72;5052117;28;20021;-68
2022/11/25 06:13:18;;;;;;;16.77;5.10;;;;;;;15.57;56.45;101122.94;5083502;28;20047;-68
2022/11/25 06:15:44;;;;;;;7.50;3.97;;;;;;;16.10;54.55;101120.63;5051848;28;20073;-68
2022/11/25 06:18:12;;;;;;;12.47;3.50;;;;;;;16.39;53.33;101132.09;5050690;28;20040;-67
2022/11/25 06:20:38;;;;;;;11.23;2.77;;;;;;;15.05;57.44;101133.84;5052853;28;20486;-68
2022/11/25 06:23:04;;;;;;;9.43;3.00;;;;;;;15.87;54.62;101138.88;5050840;28;20021;-68
2022/11/25 06:25:30;;;;;;;8.43;2.93;;;;;;;15.58;55.08;101135.22;5051668;28;20050;-68
2022/11/25 06:27:57;;;;;;;8.47;3.57;;;;;;;15.56;56.09;101131.72;5083506;28;20111;-68
2022/11/25 06:30:22;;;;;;;12.43;3.87;;;;;;;15.07;56.85;101132.06;5051296;28;20025;-68
2022/11/25 06:32:48;;;;;;;11.43;3.00;;;;;;;14.82;57.13;101144.06;5051065;28;20083;-68
2022/11/25 06:35:13;;;;;;;13.33;3.37;;;;;;;14.68;57.79;101145.22;5052397;28;20036;-68
2022/11/25 06:37:39;;;;;;;10.20;2.80;;;;;;;15.00;57.53;101141.00;5051909;28;20108;-68
2022/11/25 06:40:05;;;;;;;15.83;3.10;;;;;;;15.02;57.66;101144.47;5051872;28;20029;-68
2022/11/25 06:42:30;;;;;;;8.87;3.43;;;;;;;15.49;56.85;101156.50;5047482;28;20055;-68
2022/11/25 06:44:56;;;;;;;8.37;3.13;;;;;;;15.44;55.26;101151.34;5049279;28;20025;-68
2022/11/25 06:47:21;;;;;;;13.73;3.23;;;;;;;15.26;55.65;101155.31;5049688;28;20102;-68
2022/11/25 06:49:46;;;;;;;12.20;3.00;;;;;;;15.33;55.36;101154.28;5056895;28;20496;-68
2022/11/25 06:52:12;;;;;;;11.67;3.07;;;;;;;15.46;54.75;101167.13;5049887;28;20032;-68
2022/11/25 06:54:40;;;;;;;13.17;3.70;;;;;;;15.44;55.43;101170.66;5050047;28;20037;-68
2022/11/25 06:57:07;;;;;;;12.97;3.17;;;;;;;15.26;55.66;101181.63;5050268;28;20490;-68
2022/11/25 06:59:33;;;;;;;16.60;3.33;;;;;;;14.98;57.16;101190.19;5051570;28;20387;-68
2022/11/25 07:01:58;;;;;;;11.30;3.17;;;;;;;15.23;55.87;101186.97;5045929;28;20055;-68
2022/11/25 07:04:24;;;;;;;13.33;4.07;;;;;;;14.91;57.04;101205.25;5044859;28;20052;-68
2022/11/25 07:06:50;;;;;;;15.30;3.07;;;;;;;15.52;54.61;101190.66;5049835;28;20100;-68
2022/11/25 07:09:16;;;;;;;11.23;3.30;;;;;;;14.86;56.28;101200.97;5051156;28;20028;-68
2022/11/25 07:11:41;;;;;;;13.17;3.37;;;;;;;14.86;56.46;101203.63;5050273;28;20032;-68
2022/11/25 07:14:12;;;;;;;10.40;3.37;;;;;;;14.57;56.94;101210.34;5053763;28;20082;-69
2022/11/25 07:16:43;;;;;;;12.40;3.73;;;;;;;14.39;58.64;101212.44;5048927;28;20123;-69
2022/11/25 07:19:11;;;;;;;11.57;3.20;;;;;;;15.01;56.30;101208.53;5048100;28;20491;-68
2022/11/25 07:21:37;;;;;;;15.50;3.50;;;;;;;15.40;54.60;101200.63;5047646;28;20416;-69
2022/11/25 07:24:05;;;;;;;15.63;3.20;;;;;;;14.74;56.80;101217.91;5049962;28;20036;-68
2022/11/25 07:26:33;;;;;;;11.47;3.50;;;;;;;15.03;55.24;101224.28;5051257;28;20020;-69
2022/11/25 07:29:03;;;;;;;9.20;3.33;;;;;;;14.64;56.99;101222.47;5050293;28;20074;-68
2022/11/25 07:31:38;;;;;;;14.90;3.27;;;;;;;15.03;56.64;101230.44;5052518;28;20025;-66
2022/11/25 07:34:11;;;;;;;11.23;2.53;;;;;;;14.72;57.75;101230.22;5049360;28;20092;-69
2022/11/25 07:36:37;;;;;;;8.00;3.20;;;;;;;15.75;53.32;101230.47;5046121;28;20111;-69
2022/11/25 07:39:06;;;;;;;14.07;3.17;;;;;;;15.30;54.28;101233.31;5048857;28;20025;-69
2022/11/25 07:41:31;;;;;;;11.50;3.23;;;;;;;15.21;56.50;101246.72;5051732;28;20878;-68
2022/11/25 07:44:00;;;;;;;11.73;2.93;;;;;;;14.98;56.28;101248.09;5050721;28;20170;-68
2022/11/25 07:46:34;;;;;;;15.67;3.20;;;;;;;15.50;55.10;101250.44;5049175;28;20029;-69
2022/11/25 07:49:02;;;;;;;17.67;3.30;;;;;;;15.89;52.92;101255.66;5056360;28;20026;-69
2022/11/25 07:51:30;;;;;;;11.27;3.23;;;;;;;15.25;55.63;101256.28;5032107;28;20041;-69
2022/11/25 07:53:57;;;;;;;10.30;3.10;;;;;;;15.10;55.29;101268.88;5055858;28;20012;-69
2022/11/25 07:56:27;;;;;;;9.37;3.40;;;;;;;14.49;57.89;101276.22;5052266;28;20033;-69
2022/11/25 07:58:53;;;;;;;15.10;3.10;;;;;;;14.39;57.92;101272.06;5082610;28;20035;-69
2022/11/25 08:01:19;;;;;;;12.63;3.40;;;;;;;14.81;58.56;101298.47;5050333;28;20049;-69
2022/11/25 08:03:46;;;;;;;8.13;2.43;;;;;;;14.37;61.37;101287.88;5049556;28;20397;-69
2022/11/25 08:06:15;;;;;;;13.17;3.07;;;;;;;14.83;58.65;101296.66;5047238;28;20037;-69
2022/11/25 08:08:41;;;;;;;15.43;3.30;;;;;;;14.27;61.10;101288.91;5053855;28;20028;-68
2022/11/25 08:11:09;;;;;;;6.70;2.37;;;;;;;14.93;58.79;101297.31;5050776;28;20033;-69
2022/11/25 08:13:34;;;;;;;10.50;2.50;;;;;;;14.97;57.09;101303.41;5049343;28;20542;-69
2022/11/25 08:15:59;;;;;;;13.50;2.40;;;;;;;15.37;55.15;101313.97;5048397;28;20116;-69
2022/11/25 08:18:25;;;;;;;7.53;2.40;;;;;;;15.49;55.08;101307.53;5048371;28;20441;-68
2022/11/25 08:20:50;;;;;;;5.47;1.93;;;;;;;15.65;55.09;101313.31;5049874;28;20021;-69
2022/11/25 08:23:16;;;;;;;10.77;2.27;;;;;;;15.29;56.35;101315.88;5049808;28;20485;-68
2022/11/25 08:25:42;;;;;;;5.70;2.63;;;;;;;15.93;53.82;101328.50;5044051;28;20383;-69
2022/11/25 08:28:08;;;;;;;11.47;1.93;;;;;;;16.36;52.33;101319.50;5049808;28;20013;-69
2022/11/25 08:30:34;;;;;;;11.70;2.37;;;;;;;16.09;52.90;101321.94;5048635;28;20029;-69
2022/11/25 08:32:59;;;;;;;9.70;2.20;;;;;;;15.87;54.32;101329.50;5062285;28;20029;-68
2022/11/25 08:35:25;;;;;;;5.33;2.43;;;;;;;15.32;55.23;101328.97;5046256;28;20033;-69
2022/11/25 08:37:50;;;;;;;8.37;2.30;;;;;;;15.94;53.68;101332.88;5049390;28;20083;-69
2022/11/25 08:40:16;;;;;;;8.80;2.20;;;;;;;15.73;54.67;101328.94;5049763;28;20410;-69
2022/11/25 08:42:41;;;;;;;8.57;1.90;;;;;;;16.47;52.99;101326.25;5049597;28;20513;-68
2022/11/25 08:45:08;;;;;;;9.90;2.23;;;;;;;16.20;53.16;101328.72;5048597;28;20028;-69
2022/11/25 08:47:33;;;;;;;15.20;2.57;;;;;;;15.84;54.53;101339.25;5047432;28;20075;-69
2022/11/25 08:49:59;;;;;;;11.47;2.70;;;;;;;15.04;56.77;101340.13;5050908;28;20471;-67
2022/11/25 08:52:25;;;;;;;7.97;2.50;;;;;;;15.83;54.88;101337.53;5048672;28;20025;-67
2022/11/25 08:54:50;;;;;;;14.10;2.40;;;;;;;15.99;55.14;101346.81;5048844;28;20048;-67
2022/11/25 08:57:16;;;;;;;12.33;2.30;;;;;;;15.62;55.79;101358.19;5048865;28;20474;-69
2022/11/25 08:59:41;;;;;;;8.47;2.30;;;;;;;15.01;57.82;101348.03;5048383;28;20082;-69
2022/11/25 09:02:08;;;;;;;8.23;1.67;;;;;;;15.63;55.12;101357.25;5048648;28;20124;-69
2022/11/25 09:04:34;;;;;;;11.73;2.00;;;;;;;16.19;53.40;101358.63;5048721;28;20052;-69
2022/11/25 09:07:00;;;;;;;6.20;1.67;;;;;;;16.03;54.20;101366.03;5047996;28;20020;-69
2022/11/25 09:09:26;;;;;;;9.10;1.80;;;;;;;16.11;54.31;101369.34;5048725;28;20106;-66
2022/11/25 09:11:51;;;;;;;6.40;3.10;;;;;;;15.21;56.56;101368.72;5048714;28;20025;-68
2022/11/25 09:14:16;;;;;;;10.80;2.37;;;;;;;16.38;53.59;101365.16;5047334;28;20025;-68
2022/11/25 09:16:42;;;;;;;7.53;2.43;;;;;;;16.06;54.69;101377.38;5048732;28;20497;-68
2022/11/25 09:19:07;;;;;;;10.53;2.30;;;;;;;16.17;53.30;101384.16;5050250;28;20057;-69
2022/11/25 09:21:33;;;;;;;7.60;2.27;;;;;;;15.96;53.70;101391.69;5051789;28;20470;-69
2022/11/25 09:23:58;;;;;;;11.03;2.73;;;;;;;16.22;53.96;101388.41;5053795;28;20047;-69
2022/11/25 09:26:29;;;;;;;12.00;2.07;;;;;;;15.81;55.04;101386.78;5052214;28;20108;-69
2022/11/25 09:28:55;;;;;;;13.60;2.80;;;;;;;16.31;53.61;101399.63;5050725;28;20104;-68
2022/11/25 09:31:22;;;;;;;7.43;2.30;;;;;;;15.56;54.98;101395.19;5051786;28;20028;-69
2022/11/25 09:33:47;;;;;;;13.77;2.73;;;;;;;16.56;52.26;101398.09;5047116;28;20032;-69
2022/11/25 09:36:15;;;;;;;6.70;1.93;;;;;;;16.20;53.32;101415.75;5052075;28;20481;-69
2022/11/25 09:38:43;;;;;;;11.20;2.50;;;;;;;16.34;52.96;101413.63;5054525;28;20024;-68
2022/11/25 09:47:55;;;;;;;6.77;2.13;;;;;;;15.92;54.54;101427.81;5054430;28;20139;-69
2022/11/25 09:50:33;;;;;;;10.07;2.07;;;;;;;16.13;54.82;101432.59;5042201;28;20498;-69
2022/11/25 09:53:07;;;;;;;12.47;2.57;;;;;;;16.06;54.76;101435.41;5052659;28;20548;-69
2022/11/25 09:55:41;;;;;;;9.57;1.87;;;;;;;16.24;54.45;101439.38;5051144;28;20024;-68
2022/11/25 09:58:25;;;;;;;8.33;2.07;;;;;;;17.16;51.51;101439.69;5048300;28;20029;-69
2022/11/25 10:00:52;;;;;;;12.93;2.03;;;;;;;16.36;54.29;101454.03;5050589;28;20036;-68
2022/11/25 10:03:38;;;;;;;7.10;1.80;;;;;;;18.06;50.66;101438.78;5051252;28;20037;-68
2022/11/25 10:06:26;;;;;;;7.53;2.07;;;;;;;16.78;53.17;101445.91;5052246;28;20017;-68
2022/11/25 10:08:56;;;;;;;9.57;2.40;;;;;;;17.21;51.72;101446.56;5052974;28;20501;-69
2022/11/25 10:11:26;;;;;;;13.63;1.97;;;;;;;17.35;51.75;101445.31;5050908;28;20033;-69
2022/11/25 10:14:04;;;;;;;8.43;2.43;;;;;;;18.29;48.93;101450.44;5050521;28;20032;-68
2022/11/25 10:16:38;;;;;;;11.03;2.27;;;;;;;18.35;48.65;101455.50;5031184;28;20505;-68
2022/11/25 10:19:15;;;;;;;12.23;1.97;;;;;;;18.08;50.18;101463.44;5049076;28;20029;-69
2022/11/25 10:21:41;;;;;;;7.97;1.80;;;;;;;18.49;47.97;101460.34;5050333;28;20029;-69
2022/11/25 10:24:13;;;;;;;9.77;1.70;;;;;;;18.21;49.54;101463.03;5050361;28;20036;-69
2022/11/25 10:26:42;;;;;;;7.10;1.85;;;;;;;18.65;48.48;101463.34;5048172;28;20123;-68
2022/11/25 10:29:13;;;;;;;17.47;1.87;;;;;;;18.80;47.84;101468.13;5048841;28;20079;-69
2022/11/25 10:31:41;;;;;;;8.07;2.03;;;;;;;19.57;45.77;101461.00;5065537;28;20035;-67
2022/11/25 10:34:15;;;;;;;13.20;1.80;;;;;;;18.00;48.72;101470.75;5083257;28;20032;-66
2022/11/25 10:36:42;;;;;;;11.47;2.03;;;;;;;19.38;46.23;101474.09;5068329;28;20021;-69
2022/11/25 10:39:25;;;;;;;11.40;2.22;;;;;;;19.34;46.46;101475.97;5050730;28;20056;-66
2022/11/25 10:42:02;;;;;;;8.88;2.00;;;;;;;18.77;46.28;101489.41;5046937;28;20021;-69
2022/11/25 10:44:32;;;;;;;18.75;2.13;;;;;;;19.16;46.17;101490.75;5048342;28;20028;-68
2022/11/25 10:47:34;;;;;;;10.80;2.00;;;;;;;18.60;47.68;101494.41;5047678;28;20079;-69
2022/11/25 10:50:34;;;;;;;13.18;2.20;;;;;;;18.01;49.21;101504.22;5065731;28;20044;-69
2022/11/25 10:53:08;;;;;;;17.75;2.35;;;;;;;18.25;49.89;101504.34;5047796;28;20025;-68
2022/11/25 10:55:34;;;;;;;13.93;2.38;;;;;;;18.28;48.19;101502.47;5051566;28;20090;-69
2022/11/25 10:58:28;;;;;;;17.83;3.33;;;;;;;19.11;47.03;101509.47;5046816;28;20027;-67
2022/11/25 11:01:21;;;;;;;17.83;3.13;;;;;;;17.35;50.49;101517.53;5040486;28;20095;-67
2022/11/25 11:03:53;;;;;;;16.70;2.55;;;;;;;19.01;47.48;101523.94;5046852;28;20056;-67
2022/11/25 11:06:35;;;;;;;15.33;3.10;;;;;;;19.70;46.36;101515.31;5051726;28;20124;-67
2022/11/25 11:09:01;;;;;;;17.88;3.08;;;;;;;18.79;47.88;101529.06;5046043;28;20035;-68
2022/11/25 11:11:27;;;;;;;11.83;2.93;;;;;;;18.50;47.80;101527.41;5049671;28;20028;-67
2022/11/25 11:14:07;;;;;;;12.90;2.70;;;;;;;19.10;47.99;101534.22;5050365;28;20025;-67
2022/11/25 11:16:37;;;;;;;13.50;2.43;;;;;;;18.57;47.80;101547.44;5050789;28;20132;-67
2022/11/25 11:19:03;;;;;;;15.27;3.03;;;;;;;18.41;48.78;101552.34;5046874;28;20025;-68
2022/11/25 11:21:40;;;;;;;14.53;3.63;;;;;;;18.62;48.97;101553.47;5049579;28;20048;-67
2022/11/25 11:24:24;;;;;;;17.90;2.90;;;;;;;18.77;48.28;101563.56;5048561;28;20386;-67
2022/11/25 11:27:08;;;;;;;9.60;2.43;;;;;;;19.56;47.32;101560.03;5050161;28;20420;-67
2022/11/25 11:29:34;;;;;;;16.50;3.27;;;;;;;19.39;46.30;101566.78;5049816;28;20116;-67
2022/11/25 11:32:05;;;;;;;16.50;2.50;;;;;;;19.44;47.23;101567.50;5084127;28;20029;-67